sensor_id;sensor_type;location;lat;lon;timestamp;P1;durP1;ratioP1;P2;durP2;ratioP2
66870;SDS011;53780;44.998;9.926;2023-04-03T00:01:47;6.90;;;3.65;;
66870;SDS011;53780;44.998;9.926;2023-04-03T00:04:51;7.88;;;3.67;;
66870;SDS011;53780;44.998;9.926;2023-04-03T00:07:55;8.18;;;3.88;;
66870;SDS011;53780;44.998;9.926;2023-04-03T00:10:58;6.63;;;3.37;;
66870;SDS011;53780;44.998;9.926;2023-04-03T00:14:02;5.90;;;2.92;;
66870;SDS011;53780;44.998;9.926;2023-04-03T00:17:06;5.80;;;2.65;;
66870;SDS011;53780;44.998;9.926;2023-04-03T00:20:09;6.15;;;2.45;;
66870;SDS011;53780;44.998;9.926;2023-04-03T00:23:13;7.10;;;2.22;;
66870;SDS011;53780;44.998;9.926;2023-04-03T00:26:18;5.50;;;2.00;;
66870;SDS011;53780;44.998;9.926;2023-04-03T00:29:23;5.80;;;2.15;;
66870;SDS011;53780;44.998;9.926;2023-04-03T00:32:27;5.72;;;1.90;;
66870;SDS011;53780;44.998;9.926;2023-04-03T00:35:31;4.75;;;2.00;;
66870;SDS011;53780;44.998;9.926;2023-04-03T00:38:35;4.97;;;2.05;;
66870;SDS011;53780;44.998;9.926;2023-04-03T00:41:40;6.17;;;2.10;;
66870;SDS011;53780;44.998;9.926;2023-04-03T00:47:48;4.75;;;1.83;;
66870;SDS011;53780;44.998;9.926;2023-04-03T00:50:52;6.53;;;1.88;;
66870;SDS011;53780;44.998;9.926;2023-04-03T00:53:58;4.10;;;1.63;;
66870;SDS011;53780;44.998;9.926;2023-04-03T00:57:04;5.70;;;1.80;;
66870;SDS011;53780;44.998;9.926;2023-04-03T01:00:10;5.45;;;1.98;;
66870;SDS011;53780;44.998;9.926;2023-04-03T01:03:18;4.60;;;1.90;;
66870;SDS011;53780;44.998;9.926;2023-04-03T01:06:26;4.57;;;1.77;;
66870;SDS011;53780;44.998;9.926;2023-04-03T01:09:40;5.03;;;1.80;;
66870;SDS011;53780;44.998;9.926;2023-04-03T01:12:46;5.40;;;1.97;;
66870;SDS011;53780;44.998;9.926;2023-04-03T01:15:51;5.60;;;2.10;;
66870;SDS011;53780;44.998;9.926;2023-04-03T01:18:56;5.00;;;2.00;;
66870;SDS011;53780;44.998;9.926;2023-04-03T01:22:02;5.38;;;2.00;;
66870;SDS011;53780;44.998;9.926;2023-04-03T01:25:21;5.75;;;2.20;;
66870;SDS011;53780;44.998;9.926;2023-04-03T01:28:28;5.23;;;2.10;;
66870;SDS011;53780;44.998;9.926;2023-04-03T01:34:38;5.57;;;2.10;;
66870;SDS011;53780;44.998;9.926;2023-04-03T01:37:43;6.45;;;2.42;;
66870;SDS011;53780;44.998;9.926;2023-04-03T01:40:47;5.10;;;2.17;;
66870;SDS011;53780;44.998;9.926;2023-04-03T01:43:51;6.03;;;2.33;;
66870;SDS011;53780;44.998;9.926;2023-04-03T01:46:55;6.13;;;1.90;;
66870;SDS011;53780;44.998;9.926;2023-04-03T01:50:00;5.47;;;1.90;;
66870;SDS011;53780;44.998;9.926;2023-04-03T01:53:05;5.22;;;1.60;;
66870;SDS011;53780;44.998;9.926;2023-04-03T01:56:10;4.55;;;1.70;;
66870;SDS011;53780;44.998;9.926;2023-04-03T01:59:13;4.17;;;1.27;;
66870;SDS011;53780;44.998;9.926;2023-04-03T02:02:20;5.95;;;1.60;;
66870;SDS011;53780;44.998;9.926;2023-04-03T02:05:24;4.50;;;1.42;;
66870;SDS011;53780;44.998;9.926;2023-04-03T02:08:28;5.10;;;1.77;;
66870;SDS011;53780;44.998;9.926;2023-04-03T02:11:32;4.82;;;1.63;;
66870;SDS011;53780;44.998;9.926;2023-04-03T02:14:37;3.60;;;1.20;;
66870;SDS011;53780;44.998;9.926;2023-04-03T02:17:40;4.15;;;1.58;;
66870;SDS011;53780;44.998;9.926;2023-04-03T02:20:44;3.75;;;1.50;;
66870;SDS011;53780;44.998;9.926;2023-04-03T02:23:49;3.97;;;1.65;;
66870;SDS011;53780;44.998;9.926;2023-04-03T02:26:55;4.63;;;1.60;;
66870;SDS011;53780;44.998;9.926;2023-04-03T02:29:59;5.30;;;1.80;;
66870;SDS011;53780;44.998;9.926;2023-04-03T02:33:03;4.97;;;1.63;;
66870;SDS011;53780;44.998;9.926;2023-04-03T02:36:08;4.10;;;1.50;;
66870;SDS011;53780;44.998;9.926;2023-04-03T02:39:14;6.15;;;1.60;;
66870;SDS011;53780;44.998;9.926;2023-04-03T02:42:19;4.18;;;1.40;;
66870;SDS011;53780;44.998;9.926;2023-04-03T02:45:23;4.87;;;1.80;;
66870;SDS011;53780;44.998;9.926;2023-04-03T02:48:27;4.15;;;1.60;;
66870;SDS011;53780;44.998;9.926;2023-04-03T02:51:31;3.90;;;1.50;;
66870;SDS011;53780;44.998;9.926;2023-04-03T02:54:35;3.88;;;1.48;;
66870;SDS011;53780;44.998;9.926;2023-04-03T02:57:42;4.85;;;1.60;;
66870;SDS011;53780;44.998;9.926;2023-04-03T03:00:46;4.20;;;1.70;;
66870;SDS011;53780;44.998;9.926;2023-04-03T03:03:50;4.20;;;1.40;;
66870;SDS011;53780;44.998;9.926;2023-04-03T03:06:54;4.68;;;1.60;;
66870;SDS011;53780;44.998;9.926;2023-04-03T03:09:58;4.65;;;1.40;;
66870;SDS011;53780;44.998;9.926;2023-04-03T03:13:03;4.38;;;1.58;;
66870;SDS011;53780;44.998;9.926;2023-04-03T03:16:07;4.83;;;1.87;;
66870;SDS011;53780;44.998;9.926;2023-04-03T03:19:11;4.82;;;1.90;;
66870;SDS011;53780;44.998;9.926;2023-04-03T03:22:16;4.97;;;1.60;;
66870;SDS011;53780;44.998;9.926;2023-04-03T03:25:20;4.22;;;1.83;;
66870;SDS011;53780;44.998;9.926;2023-04-03T03:28:24;7.15;;;2.28;;
66870;SDS011;53780;44.998;9.926;2023-04-03T03:31:28;5.73;;;2.30;;
66870;SDS011;53780;44.998;9.926;2023-04-03T03:34:32;4.78;;;2.10;;
66870;SDS011;53780;44.998;9.926;2023-04-03T03:37:36;4.80;;;1.83;;
66870;SDS011;53780;44.998;9.926;2023-04-03T03:40:40;5.30;;;2.20;;
66870;SDS011;53780;44.998;9.926;2023-04-03T03:43:44;5.53;;;1.90;;
66870;SDS011;53780;44.998;9.926;2023-04-03T03:46:50;6.07;;;2.10;;
66870;SDS011;53780;44.998;9.926;2023-04-03T03:49:54;5.30;;;2.20;;
66870;SDS011;53780;44.998;9.926;2023-04-03T03:52:58;5.43;;;2.00;;
66870;SDS011;53780;44.998;9.926;2023-04-03T03:56:02;5.38;;;1.85;;
66870;SDS011;53780;44.998;9.926;2023-04-03T03:59:08;4.88;;;2.00;;
66870;SDS011;53780;44.998;9.926;2023-04-03T04:02:12;5.57;;;2.10;;
66870;SDS011;53780;44.998;9.926;2023-04-03T04:05:15;4.47;;;1.70;;
66870;SDS011;53780;44.998;9.926;2023-04-03T04:08:19;4.53;;;1.88;;
66870;SDS011;53780;44.998;9.926;2023-04-03T04:11:24;4.20;;;1.75;;
66870;SDS011;53780;44.998;9.926;2023-04-03T04:14:30;5.10;;;1.75;;
66870;SDS011;53780;44.998;9.926;2023-04-03T04:17:36;5.37;;;2.00;;
66870;SDS011;53780;44.998;9.926;2023-04-03T04:20:42;4.28;;;1.73;;
66870;SDS011;53780;44.998;9.926;2023-04-03T04:23:48;6.20;;;1.80;;
66870;SDS011;53780;44.998;9.926;2023-04-03T04:26:52;6.05;;;1.90;;
66870;SDS011;53780;44.998;9.926;2023-04-03T04:29:58;7.15;;;1.95;;
66870;SDS011;53780;44.998;9.926;2023-04-03T04:33:01;5.30;;;1.90;;
66870;SDS011;53780;44.998;9.926;2023-04-03T04:36:06;5.53;;;2.20;;
66870;SDS011;53780;44.998;9.926;2023-04-03T04:39:11;8.07;;;3.30;;
66870;SDS011;53780;44.998;9.926;2023-04-03T04:42:15;18.00;;;8.95;;
66870;SDS011;53780;44.998;9.926;2023-04-03T04:45:21;17.75;;;9.07;;
66870;SDS011;53780;44.998;9.926;2023-04-03T04:48:26;7.93;;;3.97;;
66870;SDS011;53780;44.998;9.926;2023-04-03T04:51:30;6.15;;;2.65;;
66870;SDS011;53780;44.998;9.926;2023-04-03T04:54:35;7.45;;;2.22;;
66870;SDS011;53780;44.998;9.926;2023-04-03T04:57:39;5.63;;;2.22;;
66870;SDS011;53780;44.998;9.926;2023-04-03T05:00:43;5.15;;;2.38;;
66870;SDS011;53780;44.998;9.926;2023-04-03T05:03:48;5.27;;;2.40;;
66870;SDS011;53780;44.998;9.926;2023-04-03T05:06:52;6.30;;;2.33;;
66870;SDS011;53780;44.998;9.926;2023-04-03T05:10:01;5.03;;;2.30;;
66870;SDS011;53780;44.998;9.926;2023-04-03T05:13:06;5.25;;;2.30;;
66870;SDS011;53780;44.998;9.926;2023-04-03T05:16:10;7.95;;;2.83;;
66870;SDS011;53780;44.998;9.926;2023-04-03T05:19:15;6.50;;;2.27;;
66870;SDS011;53780;44.998;9.926;2023-04-03T05:22:19;6.70;;;2.53;;
66870;SDS011;53780;44.998;9.926;2023-04-03T05:25:23;5.82;;;2.40;;
66870;SDS011;53780;44.998;9.926;2023-04-03T05:28:28;6.70;;;2.30;;
66870;SDS011;53780;44.998;9.926;2023-04-03T05:31:31;4.75;;;2.30;;
66870;SDS011;53780;44.998;9.926;2023-04-03T05:34:35;5.30;;;2.20;;
66870;SDS011;53780;44.998;9.926;2023-04-03T05:37:40;5.00;;;1.80;;
66870;SDS011;53780;44.998;9.926;2023-04-03T05:40:44;6.40;;;2.20;;
66870;SDS011;53780;44.998;9.926;2023-04-03T05:43:49;7.78;;;2.53;;
66870;SDS011;53780;44.998;9.926;2023-04-03T05:46:54;6.20;;;2.03;;
66870;SDS011;53780;44.998;9.926;2023-04-03T05:49:58;7.00;;;2.37;;
66870;SDS011;53780;44.998;9.926;2023-04-03T05:53:02;9.77;;;2.60;;
66870;SDS011;53780;44.998;9.926;2023-04-03T05:56:09;14.40;;;4.50;;
66870;SDS011;53780;44.998;9.926;2023-04-03T05:59:16;19.00;;;5.78;;
66870;SDS011;53780;44.998;9.926;2023-04-03T06:02:22;20.65;;;5.78;;
66870;SDS011;53780;44.998;9.926;2023-04-03T06:05:28;14.97;;;4.80;;
66870;SDS011;53780;44.998;9.926;2023-04-03T06:08:32;20.10;;;5.95;;
66870;SDS011;53780;44.998;9.926;2023-04-03T06:11:37;22.17;;;6.60;;
66870;SDS011;53780;44.998;9.926;2023-04-03T06:14:40;27.35;;;8.70;;
66870;SDS011;53780;44.998;9.926;2023-04-03T06:17:44;21.48;;;7.60;;
66870;SDS011;53780;44.998;9.926;2023-04-03T06:20:49;19.37;;;7.17;;
66870;SDS011;53780;44.998;9.926;2023-04-03T06:23:53;25.25;;;7.93;;
66870;SDS011;53780;44.998;9.926;2023-04-03T06:26:57;27.95;;;9.20;;
66870;SDS011;53780;44.998;9.926;2023-04-03T06:30:02;24.33;;;8.90;;
66870;SDS011;53780;44.998;9.926;2023-04-03T06:33:05;26.55;;;10.20;;
66870;SDS011;53780;44.998;9.926;2023-04-03T06:36:09;23.13;;;9.87;;
66870;SDS011;53780;44.998;9.926;2023-04-03T06:39:15;22.02;;;9.20;;
66870;SDS011;53780;44.998;9.926;2023-04-03T06:42:21;22.33;;;8.95;;
66870;SDS011;53780;44.998;9.926;2023-04-03T06:45:35;21.35;;;8.40;;
66870;SDS011;53780;44.998;9.926;2023-04-03T06:48:39;17.30;;;7.45;;
66870;SDS011;53780;44.998;9.926;2023-04-03T06:51:46;17.33;;;7.33;;
66870;SDS011;53780;44.998;9.926;2023-04-03T06:54:50;19.98;;;7.63;;
66870;SDS011;53780;44.998;9.926;2023-04-03T06:58:00;18.40;;;7.47;;
66870;SDS011;53780;44.998;9.926;2023-04-03T07:01:04;21.88;;;9.73;;
66870;SDS011;53780;44.998;9.926;2023-04-03T07:04:07;26.90;;;11.35;;
66870;SDS011;53780;44.998;9.926;2023-04-03T07:07:11;30.10;;;13.00;;
66870;SDS011;53780;44.998;9.926;2023-04-03T07:10:15;29.98;;;14.32;;
66870;SDS011;53780;44.998;9.926;2023-04-03T07:13:19;28.17;;;13.68;;
66870;SDS011;53780;44.998;9.926;2023-04-03T07:16:26;30.95;;;14.13;;
66870;SDS011;53780;44.998;9.926;2023-04-03T07:19:30;31.95;;;14.18;;
66870;SDS011;53780;44.998;9.926;2023-04-03T07:22:35;24.10;;;12.07;;
66870;SDS011;53780;44.998;9.926;2023-04-03T07:25:43;13.23;;;7.07;;
66870;SDS011;53780;44.998;9.926;2023-04-03T07:28:48;9.43;;;6.43;;
66870;SDS011;53780;44.998;9.926;2023-04-03T07:31:53;9.23;;;6.63;;
66870;SDS011;53780;44.998;9.926;2023-04-03T07:34:58;10.20;;;6.78;;
66870;SDS011;53780;44.998;9.926;2023-04-03T07:38:02;9.53;;;6.93;;
66870;SDS011;53780;44.998;9.926;2023-04-03T07:41:06;10.38;;;6.68;;
66870;SDS011;53780;44.998;9.926;2023-04-03T07:44:10;10.00;;;7.13;;
66870;SDS011;53780;44.998;9.926;2023-04-03T07:47:14;10.38;;;7.25;;
66870;SDS011;53780;44.998;9.926;2023-04-03T07:50:20;11.68;;;6.80;;
66870;SDS011;53780;44.998;9.926;2023-04-03T07:53:24;10.27;;;7.70;;
66870;SDS011;53780;44.998;9.926;2023-04-03T07:56:28;11.85;;;7.07;;
66870;SDS011;53780;44.998;9.926;2023-04-03T07:59:32;11.38;;;6.82;;
66870;SDS011;53780;44.998;9.926;2023-04-03T08:02:36;9.63;;;6.80;;
66870;SDS011;53780;44.998;9.926;2023-04-03T08:05:40;9.77;;;6.30;;
66870;SDS011;53780;44.998;9.926;2023-04-03T08:08:45;8.83;;;6.43;;
66870;SDS011;53780;44.998;9.926;2023-04-03T08:11:49;9.32;;;6.32;;
66870;SDS011;53780;44.998;9.926;2023-04-03T08:14:56;7.82;;;5.80;;
66870;SDS011;53780;44.998;9.926;2023-04-03T08:17:59;9.52;;;6.53;;
66870;SDS011;53780;44.998;9.926;2023-04-03T08:21:08;8.88;;;5.60;;
66870;SDS011;53780;44.998;9.926;2023-04-03T08:24:13;7.27;;;5.07;;
66870;SDS011;53780;44.998;9.926;2023-04-03T08:27:17;10.57;;;6.07;;
66870;SDS011;53780;44.998;9.926;2023-04-03T08:30:20;9.82;;;5.68;;
66870;SDS011;53780;44.998;9.926;2023-04-03T08:33:25;11.57;;;6.78;;
66870;SDS011;53780;44.998;9.926;2023-04-03T08:36:29;10.73;;;6.03;;
66870;SDS011;53780;44.998;9.926;2023-04-03T08:39:33;10.13;;;5.90;;
66870;SDS011;53780;44.998;9.926;2023-04-03T08:43:00;9.30;;;5.82;;
66870;SDS011;53780;44.998;9.926;2023-04-03T08:46:21;8.88;;;4.97;;
66870;SDS011;53780;44.998;9.926;2023-04-03T08:52:42;9.77;;;5.22;;
66870;SDS011;53780;44.998;9.926;2023-04-03T08:55:51;8.10;;;4.83;;
66870;SDS011;53780;44.998;9.926;2023-04-03T08:59:01;8.40;;;5.20;;
66870;SDS011;53780;44.998;9.926;2023-04-03T09:02:18;8.27;;;5.22;;
66870;SDS011;53780;44.998;9.926;2023-04-03T09:08:51;8.65;;;5.63;;
66870;SDS011;53780;44.998;9.926;2023-04-03T09:12:32;7.50;;;5.90;;
66870;SDS011;53780;44.998;9.926;2023-04-03T09:15:41;9.60;;;5.23;;
66870;SDS011;53780;44.998;9.926;2023-04-03T09:18:48;7.70;;;4.90;;
66870;SDS011;53780;44.998;9.926;2023-04-03T09:22:02;6.78;;;4.95;;
66870;SDS011;53780;44.998;9.926;2023-04-03T09:28:21;9.13;;;5.00;;
66870;SDS011;53780;44.998;9.926;2023-04-03T09:31:38;8.33;;;4.83;;
66870;SDS011;53780;44.998;9.926;2023-04-03T09:34:46;6.65;;;4.90;;
66870;SDS011;53780;44.998;9.926;2023-04-03T09:38:37;7.72;;;5.30;;
66870;SDS011;53780;44.998;9.926;2023-04-03T09:41:17;7.22;;;5.00;;
66870;SDS011;53780;44.998;9.926;2023-04-03T09:44:23;6.90;;;4.47;;
66870;SDS011;53780;44.998;9.926;2023-04-03T09:47:31;8.23;;;4.50;;
66870;SDS011;53780;44.998;9.926;2023-04-03T09:50:37;5.73;;;3.07;;
66870;SDS011;53780;44.998;9.926;2023-04-03T09:54:23;5.88;;;3.22;;
66870;SDS011;53780;44.998;9.926;2023-04-03T09:57:43;5.60;;;3.85;;
66870;SDS011;53780;44.998;9.926;2023-04-03T10:00:54;5.22;;;2.88;;
66870;SDS011;53780;44.998;9.926;2023-04-03T10:07:28;5.63;;;2.77;;
66870;SDS011;53780;44.998;9.926;2023-04-03T10:10:36;5.38;;;2.13;;
66870;SDS011;53780;44.998;9.926;2023-04-03T10:13:53;5.10;;;2.97;;
66870;SDS011;53780;44.998;9.926;2023-04-03T10:17:05;4.90;;;2.92;;
66870;SDS011;53780;44.998;9.926;2023-04-03T10:23:31;4.60;;;2.70;;
66870;SDS011;53780;44.998;9.926;2023-04-03T10:26:46;4.90;;;2.55;;
66870;SDS011;53780;44.998;9.926;2023-04-03T10:33:18;5.72;;;2.40;;
66870;SDS011;53780;44.998;9.926;2023-04-03T10:43:04;5.17;;;2.33;;
66870;SDS011;53780;44.998;9.926;2023-04-03T10:46:37;5.07;;;2.22;;
66870;SDS011;53780;44.998;9.926;2023-04-03T10:50:31;4.68;;;1.85;;
66870;SDS011;53780;44.998;9.926;2023-04-03T10:53:37;4.68;;;2.10;;
66870;SDS011;53780;44.998;9.926;2023-04-03T10:56:53;5.20;;;2.10;;
66870;SDS011;53780;44.998;9.926;2023-04-03T11:00:03;5.47;;;2.20;;
66870;SDS011;53780;44.998;9.926;2023-04-03T11:03:14;4.57;;;2.10;;
66870;SDS011;53780;44.998;9.926;2023-04-03T11:06:49;5.22;;;2.30;;
66870;SDS011;53780;44.998;9.926;2023-04-03T11:09:58;4.35;;;1.70;;
66870;SDS011;53780;44.998;9.926;2023-04-03T11:16:41;5.67;;;2.60;;
66870;SDS011;53780;44.998;9.926;2023-04-03T11:23:19;5.88;;;2.17;;
66870;SDS011;53780;44.998;9.926;2023-04-03T11:26:30;5.35;;;2.63;;
66870;SDS011;53780;44.998;9.926;2023-04-03T11:29:39;5.63;;;2.35;;
66870;SDS011;53780;44.998;9.926;2023-04-03T11:32:59;5.93;;;2.80;;
66870;SDS011;53780;44.998;9.926;2023-04-03T11:36:29;5.82;;;2.40;;
66870;SDS011;53780;44.998;9.926;2023-04-03T11:39:36;3.65;;;2.03;;
66870;SDS011;53780;44.998;9.926;2023-04-03T11:42:42;6.82;;;2.30;;
66870;SDS011;53780;44.998;9.926;2023-04-03T11:48:59;5.10;;;2.53;;
66870;SDS011;53780;44.998;9.926;2023-04-03T11:52:03;6.75;;;2.75;;
66870;SDS011;53780;44.998;9.926;2023-04-03T12:01:47;8.15;;;3.60;;
66870;SDS011;53780;44.998;9.926;2023-04-03T12:11:37;5.90;;;2.72;;
66870;SDS011;53780;44.998;9.926;2023-04-03T12:14:41;5.88;;;2.60;;
66870;SDS011;53780;44.998;9.926;2023-04-03T12:17:45;5.40;;;2.15;;
66870;SDS011;53780;44.998;9.926;2023-04-03T12:20:57;4.05;;;1.63;;
66870;SDS011;53780;44.998;9.926;2023-04-03T12:27:21;4.43;;;1.60;;
66870;SDS011;53780;44.998;9.926;2023-04-03T12:30:29;4.90;;;1.33;;
66870;SDS011;53780;44.998;9.926;2023-04-03T12:40:15;2.63;;;0.83;;
66870;SDS011;53780;44.998;9.926;2023-04-03T12:46:47;4.43;;;0.80;;
66870;SDS011;53780;44.998;9.926;2023-04-03T12:49:53;3.27;;;1.00;;
66870;SDS011;53780;44.998;9.926;2023-04-03T12:53:06;2.90;;;0.90;;
66870;SDS011;53780;44.998;9.926;2023-04-03T12:56:25;4.05;;;0.70;;
66870;SDS011;53780;44.998;9.926;2023-04-03T12:59:33;3.67;;;0.90;;
66870;SDS011;53780;44.998;9.926;2023-04-03T13:02:36;2.60;;;0.70;;
66870;SDS011;53780;44.998;9.926;2023-04-03T13:05:41;5.30;;;0.80;;
66870;SDS011;53780;44.998;9.926;2023-04-03T13:08:48;3.28;;;0.70;;
66870;SDS011;53780;44.998;9.926;2023-04-03T13:12:03;5.07;;;0.80;;
66870;SDS011;53780;44.998;9.926;2023-04-03T13:15:16;3.20;;;0.70;;
66870;SDS011;53780;44.998;9.926;2023-04-03T13:18:34;2.90;;;1.00;;
66870;SDS011;53780;44.998;9.926;2023-04-03T13:21:38;4.53;;;0.90;;
66870;SDS011;53780;44.998;9.926;2023-04-03T13:24:42;6.63;;;1.00;;
66870;SDS011;53780;44.998;9.926;2023-04-03T13:27:50;4.88;;;0.93;;
66870;SDS011;53780;44.998;9.926;2023-04-03T13:30:55;6.10;;;1.10;;
66870;SDS011;53780;44.998;9.926;2023-04-03T13:34:18;4.78;;;1.00;;
66870;SDS011;53780;44.998;9.926;2023-04-03T13:40:46;4.40;;;1.10;;
66870;SDS011;53780;44.998;9.926;2023-04-03T13:47:26;5.00;;;1.00;;
66870;SDS011;53780;44.998;9.926;2023-04-03T13:54:18;5.55;;;1.40;;
66870;SDS011;53780;44.998;9.926;2023-04-03T13:57:27;4.93;;;1.37;;
66870;SDS011;53780;44.998;9.926;2023-04-03T14:03:46;5.05;;;1.30;;
66870;SDS011;53780;44.998;9.926;2023-04-03T14:06:56;4.73;;;1.13;;
66870;SDS011;53780;44.998;9.926;2023-04-03T14:10:01;5.13;;;1.20;;
66870;SDS011;53780;44.998;9.926;2023-04-03T14:13:09;4.93;;;1.30;;
66870;SDS011;53780;44.998;9.926;2023-04-03T14:16:23;7.10;;;1.40;;
66870;SDS011;53780;44.998;9.926;2023-04-03T14:19:31;4.10;;;1.00;;
66870;SDS011;53780;44.998;9.926;2023-04-03T14:22:37;4.25;;;1.35;;
66870;SDS011;53780;44.998;9.926;2023-04-03T14:25:41;6.00;;;1.45;;
66870;SDS011;53780;44.998;9.926;2023-04-03T14:28:46;7.45;;;2.10;;
66870;SDS011;53780;44.998;9.926;2023-04-03T14:31:52;5.57;;;2.10;;
66870;SDS011;53780;44.998;9.926;2023-04-03T14:34:56;6.20;;;1.93;;
66870;SDS011;53780;44.998;9.926;2023-04-03T14:38:01;7.03;;;2.25;;
66870;SDS011;53780;44.998;9.926;2023-04-03T14:41:04;7.50;;;2.88;;
66870;SDS011;53780;44.998;9.926;2023-04-03T14:44:08;7.93;;;2.63;;
66870;SDS011;53780;44.998;9.926;2023-04-03T14:47:12;6.77;;;2.80;;
66870;SDS011;53780;44.998;9.926;2023-04-03T14:50:22;8.00;;;3.10;;
66870;SDS011;53780;44.998;9.926;2023-04-03T14:53:27;6.95;;;2.90;;
66870;SDS011;53780;44.998;9.926;2023-04-03T14:56:33;6.43;;;2.63;;
66870;SDS011;53780;44.998;9.926;2023-04-03T14:59:36;8.23;;;2.85;;
66870;SDS011;53780;44.998;9.926;2023-04-03T15:02:40;5.07;;;2.58;;
66870;SDS011;53780;44.998;9.926;2023-04-03T15:05:46;6.57;;;2.37;;
66870;SDS011;53780;44.998;9.926;2023-04-03T15:08:51;8.23;;;2.42;;
66870;SDS011;53780;44.998;9.926;2023-04-03T15:11:54;8.23;;;2.78;;
66870;SDS011;53780;44.998;9.926;2023-04-03T15:14:58;6.25;;;2.30;;
66870;SDS011;53780;44.998;9.926;2023-04-03T15:18:03;6.90;;;2.10;;
66870;SDS011;53780;44.998;9.926;2023-04-03T15:21:08;6.53;;;2.38;;
66870;SDS011;53780;44.998;9.926;2023-04-03T15:24:12;6.03;;;1.95;;
66870;SDS011;53780;44.998;9.926;2023-04-03T15:27:15;4.77;;;1.70;;
66870;SDS011;53780;44.998;9.926;2023-04-03T15:30:19;5.57;;;1.80;;
66870;SDS011;53780;44.998;9.926;2023-04-03T15:33:25;6.40;;;1.90;;
66870;SDS011;53780;44.998;9.926;2023-04-03T15:36:28;5.30;;;1.70;;
66870;SDS011;53780;44.998;9.926;2023-04-03T15:39:32;5.65;;;1.73;;
66870;SDS011;53780;44.998;9.926;2023-04-03T15:42:36;6.47;;;1.63;;
66870;SDS011;53780;44.998;9.926;2023-04-03T15:45:41;8.02;;;1.60;;
66870;SDS011;53780;44.998;9.926;2023-04-03T15:48:46;5.10;;;1.50;;
66870;SDS011;53780;44.998;9.926;2023-04-03T15:51:50;4.97;;;1.53;;
66870;SDS011;53780;44.998;9.926;2023-04-03T15:54:54;6.50;;;1.30;;
66870;SDS011;53780;44.998;9.926;2023-04-03T15:57:58;4.25;;;1.17;;
66870;SDS011;53780;44.998;9.926;2023-04-03T16:01:02;6.38;;;0.95;;
66870;SDS011;53780;44.998;9.926;2023-04-03T16:04:07;5.22;;;1.00;;
66870;SDS011;53780;44.998;9.926;2023-04-03T16:07:12;4.40;;;1.00;;
66870;SDS011;53780;44.998;9.926;2023-04-03T16:10:16;5.60;;;1.17;;
66870;SDS011;53780;44.998;9.926;2023-04-03T16:13:21;6.63;;;1.45;;
66870;SDS011;53780;44.998;9.926;2023-04-03T16:16:25;4.53;;;0.70;;
66870;SDS011;53780;44.998;9.926;2023-04-03T16:19:30;4.70;;;1.15;;
66870;SDS011;53780;44.998;9.926;2023-04-03T16:22:34;3.43;;;0.60;;
66870;SDS011;53780;44.998;9.926;2023-04-03T16:25:39;4.35;;;0.90;;
66870;SDS011;53780;44.998;9.926;2023-04-03T16:28:43;5.82;;;0.60;;
66870;SDS011;53780;44.998;9.926;2023-04-03T16:31:47;4.63;;;0.90;;
66870;SDS011;53780;44.998;9.926;2023-04-03T16:34:51;3.67;;;0.90;;
66870;SDS011;53780;44.998;9.926;2023-04-03T16:37:56;6.37;;;1.20;;
66870;SDS011;53780;44.998;9.926;2023-04-03T16:41:00;2.85;;;0.70;;
66870;SDS011;53780;44.998;9.926;2023-04-03T16:44:08;3.42;;;1.10;;
66870;SDS011;53780;44.998;9.926;2023-04-03T16:47:12;4.47;;;1.40;;
66870;SDS011;53780;44.998;9.926;2023-04-03T16:50:17;5.80;;;1.02;;
66870;SDS011;53780;44.998;9.926;2023-04-03T16:53:22;5.00;;;1.10;;
66870;SDS011;53780;44.998;9.926;2023-04-03T16:56:26;5.40;;;1.30;;
66870;SDS011;53780;44.998;9.926;2023-04-03T16:59:31;5.35;;;1.50;;
66870;SDS011;53780;44.998;9.926;2023-04-03T17:02:35;8.00;;;1.10;;
66870;SDS011;53780;44.998;9.926;2023-04-03T17:05:39;3.75;;;1.00;;
66870;SDS011;53780;44.998;9.926;2023-04-03T17:08:43;3.57;;;1.10;;
66870;SDS011;53780;44.998;9.926;2023-04-03T17:12:03;7.20;;;1.60;;
66870;SDS011;53780;44.998;9.926;2023-04-03T17:15:08;5.70;;;1.40;;
66870;SDS011;53780;44.998;9.926;2023-04-03T17:18:13;4.97;;;1.50;;
66870;SDS011;53780;44.998;9.926;2023-04-03T17:21:17;5.35;;;1.20;;
66870;SDS011;53780;44.998;9.926;2023-04-03T17:24:21;5.77;;;1.20;;
66870;SDS011;53780;44.998;9.926;2023-04-03T17:27:25;4.65;;;1.10;;
66870;SDS011;53780;44.998;9.926;2023-04-03T17:30:29;5.38;;;1.30;;
66870;SDS011;53780;44.998;9.926;2023-04-03T17:33:34;6.18;;;0.95;;
66870;SDS011;53780;44.998;9.926;2023-04-03T17:36:38;6.20;;;1.02;;
66870;SDS011;53780;44.998;9.926;2023-04-03T17:39:43;4.13;;;1.00;;
66870;SDS011;53780;44.998;9.926;2023-04-03T17:42:49;4.33;;;1.00;;
66870;SDS011;53780;44.998;9.926;2023-04-03T17:45:58;5.13;;;1.10;;
66870;SDS011;53780;44.998;9.926;2023-04-03T17:49:05;4.20;;;1.17;;
66870;SDS011;53780;44.998;9.926;2023-04-03T17:52:09;4.70;;;0.90;;
66870;SDS011;53780;44.998;9.926;2023-04-03T17:55:14;4.03;;;0.90;;
66870;SDS011;53780;44.998;9.926;2023-04-03T17:58:20;7.80;;;1.10;;
66870;SDS011;53780;44.998;9.926;2023-04-03T18:01:25;4.65;;;1.27;;
66870;SDS011;53780;44.998;9.926;2023-04-03T18:04:31;6.13;;;1.33;;
66870;SDS011;53780;44.998;9.926;2023-04-03T18:07:36;4.30;;;1.00;;
66870;SDS011;53780;44.998;9.926;2023-04-03T18:10:42;4.72;;;1.50;;
66870;SDS011;53780;44.998;9.926;2023-04-03T18:13:46;3.17;;;1.10;;
66870;SDS011;53780;44.998;9.926;2023-04-03T18:16:50;6.10;;;1.30;;
66870;SDS011;53780;44.998;9.926;2023-04-03T18:19:54;7.68;;;1.50;;
66870;SDS011;53780;44.998;9.926;2023-04-03T18:22:58;6.10;;;1.45;;
66870;SDS011;53780;44.998;9.926;2023-04-03T18:26:02;5.60;;;1.42;;
66870;SDS011;53780;44.998;9.926;2023-04-03T18:29:07;6.43;;;1.50;;
66870;SDS011;53780;44.998;9.926;2023-04-03T18:32:13;5.03;;;1.60;;
66870;SDS011;53780;44.998;9.926;2023-04-03T18:35:19;4.95;;;1.50;;
66870;SDS011;53780;44.998;9.926;2023-04-03T18:38:23;4.63;;;1.50;;
66870;SDS011;53780;44.998;9.926;2023-04-03T18:41:28;6.35;;;1.40;;
66870;SDS011;53780;44.998;9.926;2023-04-03T18:44:34;4.83;;;1.60;;
66870;SDS011;53780;44.998;9.926;2023-04-03T18:47:40;6.50;;;1.60;;
66870;SDS011;53780;44.998;9.926;2023-04-03T18:50:44;7.40;;;1.70;;
66870;SDS011;53780;44.998;9.926;2023-04-03T18:53:48;11.52;;;2.22;;
66870;SDS011;53780;44.998;9.926;2023-04-03T18:56:53;5.80;;;2.05;;
66870;SDS011;53780;44.998;9.926;2023-04-03T18:59:57;4.60;;;1.43;;
66870;SDS011;53780;44.998;9.926;2023-04-03T19:03:01;7.00;;;1.65;;
66870;SDS011;53780;44.998;9.926;2023-04-03T19:06:05;6.32;;;1.60;;
66870;SDS011;53780;44.998;9.926;2023-04-03T19:09:09;4.95;;;1.60;;
66870;SDS011;53780;44.998;9.926;2023-04-03T19:12:13;5.20;;;1.80;;
66870;SDS011;53780;44.998;9.926;2023-04-03T19:15:19;5.43;;;1.70;;
66870;SDS011;53780;44.998;9.926;2023-04-03T19:18:24;5.20;;;1.70;;
66870;SDS011;53780;44.998;9.926;2023-04-03T19:21:28;7.28;;;1.75;;
66870;SDS011;53780;44.998;9.926;2023-04-03T19:24:33;6.93;;;1.80;;
66870;SDS011;53780;44.998;9.926;2023-04-03T19:27:38;5.43;;;1.80;;
66870;SDS011;53780;44.998;9.926;2023-04-03T19:30:44;5.30;;;2.03;;
66870;SDS011;53780;44.998;9.926;2023-04-03T19:33:50;8.02;;;1.90;;
66870;SDS011;53780;44.998;9.926;2023-04-03T19:36:55;4.43;;;1.70;;
66870;SDS011;53780;44.998;9.926;2023-04-03T19:39:59;6.55;;;1.90;;
66870;SDS011;53780;44.998;9.926;2023-04-03T19:43:03;7.25;;;1.90;;
66870;SDS011;53780;44.998;9.926;2023-04-03T19:46:08;5.20;;;1.70;;
66870;SDS011;53780;44.998;9.926;2023-04-03T19:49:12;6.55;;;2.13;;
66870;SDS011;53780;44.998;9.926;2023-04-03T19:52:16;8.25;;;2.13;;
66870;SDS011;53780;44.998;9.926;2023-04-03T19:55:21;8.20;;;2.58;;
66870;SDS011;53780;44.998;9.926;2023-04-03T19:58:26;9.25;;;2.95;;
66870;SDS011;53780;44.998;9.926;2023-04-03T20:01:32;7.00;;;2.80;;
66870;SDS011;53780;44.998;9.926;2023-04-03T20:04:36;8.27;;;3.10;;